createdAt,value
2023-03-16T00:02:07.501Z,100287.34
2023-03-16T00:04:37.713Z,100288.44
2023-03-16T00:07:10.301Z,100287.03
2023-03-16T00:09:41.199Z,100285.88
2023-03-16T00:12:19.146Z,100282.53
2023-03-16T00:14:49.044Z,100297.47
2023-03-16T00:17:21.423Z,100299.03
2023-03-16T00:19:55.211Z,100299.97
2023-03-16T00:22:26.808Z,100299.03
2023-03-16T00:24:54.018Z,100298.34
2023-03-16T00:27:22.915Z,100306.59
2023-03-16T00:29:55.814Z,100307.59
2023-03-16T00:32:43.010Z,100303.44
2023-03-16T00:35:09.937Z,100303.00
2023-03-16T00:37:37.712Z,100307.41
2023-03-16T00:40:06.338Z,100309.03
2023-03-16T00:42:34.276Z,100316.88
2023-03-16T00:45:01.720Z,100319.59
2023-03-16T00:47:32.771Z,100315.88
2023-03-16T00:50:01.077Z,100318.31
2023-03-16T00:52:28.837Z,100323.56
2023-03-16T00:54:56.296Z,100321.16
2023-03-16T00:57:25.234Z,100320.00
2023-03-16T00:59:54.112Z,100330.41
2023-03-16T01:02:23.687Z,100337.66
2023-03-16T01:04:52.941Z,100339.53
2023-03-16T01:07:19.889Z,100331.44
2023-03-16T01:09:46.631Z,100334.47
2023-03-16T01:12:18.070Z,100331.34
2023-03-16T01:14:47.787Z,100342.88
2023-03-16T01:17:16.480Z,100330.75
2023-03-16T01:19:43.941Z,100327.53
2023-03-16T01:22:11.765Z,100338.97
2023-03-16T01:24:39.744Z,100340.91
2023-03-16T01:27:07.878Z,100338.84
2023-03-16T01:29:35.177Z,100339.88
2023-03-16T01:32:04.041Z,100350.16
2023-03-16T01:34:32.023Z,100348.63
2023-03-16T01:36:58.992Z,100348.00
2023-03-16T01:39:25.843Z,100348.00
2023-03-16T01:41:52.483Z,100341.03
2023-03-16T01:44:28.287Z,100347.50
2023-03-16T01:46:55.001Z,100349.91
2023-03-16T01:49:30.104Z,100346.03
2023-03-16T01:52:10.252Z,100348.47
2023-03-16T01:54:42.746Z,100353.94
2023-03-16T01:57:19.395Z,100361.06
2023-03-16T01:59:55.773Z,100353.56
2023-03-16T02:02:27.289Z,100359.37
2023-03-16T02:05:09.149Z,100362.06
2023-03-16T02:07:43.250Z,100367.53
2023-03-16T02:10:12.077Z,100367.84
2023-03-16T02:12:41.459Z,100373.44
2023-03-16T02:15:12.049Z,100376.69
2023-03-16T02:17:38.548Z,100381.84
2023-03-16T02:20:24.370Z,100378.16
2023-03-16T02:22:55.741Z,100392.87
2023-03-16T02:25:36.979Z,100394.16
2023-03-16T02:28:15.620Z,100385.38
2023-03-16T02:30:42.478Z,100392.56
2023-03-16T02:33:09.460Z,100394.75
2023-03-16T02:35:36.079Z,100399.06
2023-03-16T02:38:02.754Z,100409.25
2023-03-16T02:40:34.523Z,100407.41
2023-03-16T02:43:05.304Z,100410.19
2023-03-16T02:45:44.654Z,100412.72
2023-03-16T02:48:19.057Z,100419.91
2023-03-16T02:50:48.682Z,100416.66
2023-03-16T02:53:16.388Z,100423.34
2023-03-16T02:55:43.667Z,100420.13
2023-03-16T02:58:10.416Z,100425.22
2023-03-16T03:00:38.289Z,100426.00
2023-03-16T03:03:07.714Z,100424.34
2023-03-16T03:05:34.310Z,100431.84
2023-03-16T03:08:01.252Z,100441.25
2023-03-16T03:10:28.309Z,100431.34
2023-03-16T03:12:55.183Z,100437.22
2023-03-16T03:15:21.913Z,100436.25
2023-03-16T03:17:48.511Z,100440.91
2023-03-16T03:20:18.393Z,100443.87
2023-03-16T03:22:48.793Z,100451.16
2023-03-16T03:25:18.423Z,100446.84
2023-03-16T03:27:46.362Z,100452.47
2023-03-16T03:30:17.517Z,100456.00
2023-03-16T03:32:44.325Z,100466.69
2023-03-16T03:35:13.346Z,100468.41
2023-03-16T03:37:42.258Z,100461.75
2023-03-16T03:40:12.511Z,100470.97
2023-03-16T03:42:42.108Z,100478.63
2023-03-16T03:45:12.896Z,100474.50
2023-03-16T03:47:40.605Z,100485.63
2023-03-16T03:50:08.409Z,100476.34
2023-03-16T03:52:35.052Z,100477.25
2023-03-16T03:55:01.691Z,100488.97
2023-03-16T03:57:28.343Z,100482.88
2023-03-16T03:59:54.954Z,100488.94
2023-03-16T04:02:21.712Z,100496.69
2023-03-16T04:04:48.618Z,100491.63
2023-03-16T04:07:15.236Z,100495.53
2023-03-16T04:09:41.993Z,100500.50
2023-03-16T04:12:08.852Z,100500.34
2023-03-16T04:14:35.664Z,100507.66
2023-03-16T04:17:02.300Z,100507.34
2023-03-16T04:19:28.916Z,100513.09
2023-03-16T04:21:55.662Z,100517.03
2023-03-16T04:24:22.461Z,100521.34
2023-03-16T04:26:49.295Z,100517.94
2023-03-16T04:29:19.230Z,100526.09
2023-03-16T04:31:46.527Z,100524.03
2023-03-16T04:34:13.836Z,100524.75
2023-03-16T04:36:41.836Z,100527.06
2023-03-16T04:39:09.819Z,100530.78
2023-03-16T04:41:36.620Z,100538.56
2023-03-16T04:44:04.850Z,100537.47
2023-03-16T04:46:32.187Z,100533.19
2023-03-16T04:48:59.098Z,100534.56
2023-03-16T04:51:26.497Z,100538.16
2023-03-16T04:53:54.013Z,100544.84
2023-03-16T04:56:23.905Z,100551.72
2023-03-16T04:58:51.093Z,100549.28
2023-03-16T05:01:18.455Z,100560.13
2023-03-16T05:03:45.813Z,100555.69
2023-03-16T05:06:12.912Z,100569.69
2023-03-16T05:08:39.572Z,100566.78
2023-03-16T05:11:06.310Z,100574.28
2023-03-16T05:13:33.190Z,100569.00
2023-03-16T05:16:00.362Z,100561.59
2023-03-16T05:18:27.180Z,100571.34
2023-03-16T05:20:56.146Z,100574.19
2023-03-16T05:23:26.470Z,100578.09
2023-03-16T05:25:53.160Z,100577.41
2023-03-16T05:28:19.712Z,100589.16
2023-03-16T05:30:46.406Z,100585.75
2023-03-16T05:33:13.134Z,100583.78
2023-03-16T05:35:42.451Z,100586.09
2023-03-16T05:38:10.072Z,100579.66
2023-03-16T05:40:37.409Z,100584.09
2023-03-16T05:43:06.593Z,100587.62
2023-03-16T05:45:33.734Z,100592.44
2023-03-16T05:48:00.279Z,100595.44
2023-03-16T05:50:27.195Z,100589.25
2023-03-16T05:52:54.296Z,100589.66
2023-03-16T05:55:20.998Z,100600.56
2023-03-16T05:57:47.680Z,100601.34
2023-03-16T06:00:16.315Z,100600.28
2023-03-16T06:02:44.472Z,100598.66
2023-03-16T06:05:11.285Z,100601.78
2023-03-16T06:07:38.104Z,100604.72
2023-03-16T06:10:06.483Z,100608.38
2023-03-16T06:12:34.598Z,100609.34
2023-03-16T06:15:02.335Z,100610.56
2023-03-16T06:17:29.240Z,100611.09
2023-03-16T06:19:55.878Z,100620.63
2023-03-16T06:22:25.060Z,100618.28
2023-03-16T06:24:52.432Z,100624.28
2023-03-16T06:27:20.438Z,100621.31
2023-03-16T06:29:47.794Z,100622.88
2023-03-16T06:32:14.746Z,100642.28
2023-03-16T06:34:43.587Z,100645.81
2023-03-16T06:37:10.254Z,100649.28
2023-03-16T06:39:36.867Z,100652.22
2023-03-16T06:42:05.020Z,100653.66
2023-03-16T06:44:31.765Z,100652.38
2023-03-16T06:46:58.764Z,100661.56
2023-03-16T06:49:25.332Z,100657.69
2023-03-16T06:51:51.964Z,100668.53
2023-03-16T06:54:18.597Z,100666.72
2023-03-16T06:56:46.370Z,100679.34
2023-03-16T06:59:13.295Z,100675.00
2023-03-16T07:01:39.908Z,100683.44
2023-03-16T07:04:06.626Z,100679.84
2023-03-16T07:06:33.350Z,100676.22
2023-03-16T07:09:01.439Z,100680.81
2023-03-16T07:11:28.109Z,100675.97
2023-03-16T07:13:54.699Z,100681.81
2023-03-16T07:16:22.111Z,100685.56
2023-03-16T07:18:48.782Z,100685.97
2023-03-16T07:21:15.578Z,100685.50
2023-03-16T07:23:42.149Z,100684.50
2023-03-16T07:26:08.807Z,100697.00
2023-03-16T07:28:35.653Z,100692.22
2023-03-16T07:31:04.053Z,100697.31
2023-03-16T07:33:32.901Z,100698.81
2023-03-16T07:36:00.473Z,100698.41
2023-03-16T07:38:27.076Z,100698.09
2023-03-16T07:40:53.659Z,100706.00
2023-03-16T07:43:20.282Z,100705.28
2023-03-16T07:45:51.607Z,100702.34
2023-03-16T07:48:18.957Z,100700.00
2023-03-16T07:50:48.186Z,100716.31
2023-03-16T07:53:15.705Z,100712.00
2023-03-16T07:55:43.596Z,100717.88
2023-03-16T07:58:11.361Z,100716.13
2023-03-16T08:00:39.083Z,100708.63
2023-03-16T08:03:06.072Z,100719.50
2023-03-16T08:05:32.714Z,100720.66
2023-03-16T08:07:59.880Z,100719.19
2023-03-16T08:10:27.073Z,100721.09
2023-03-16T08:12:53.869Z,100725.50
2023-03-16T08:15:21.780Z,100723.72
2023-03-16T08:17:48.380Z,100727.53
2023-03-16T08:20:15.761Z,100724.50
2023-03-16T08:22:46.375Z,100731.94
2023-03-16T08:25:14.198Z,100736.16
2023-03-16T08:27:43.442Z,100731.72
2023-03-16T08:30:12.315Z,100738.75
2023-03-16T08:32:39.843Z,100730.59
2023-03-16T08:35:16.735Z,100741.94
2023-03-16T08:37:43.797Z,100741.97
2023-03-16T08:40:17.035Z,100746.34
2023-03-16T08:42:44.940Z,100740.78
2023-03-16T08:45:14.427Z,100745.37
2023-03-16T08:47:41.516Z,100743.84
2023-03-16T08:50:09.748Z,100745.09
2023-03-16T08:52:36.694Z,100737.91
2023-03-16T08:55:05.820Z,100740.50
2023-03-16T08:57:33.603Z,100741.22
2023-03-16T09:00:01.387Z,100745.87
2023-03-16T09:02:29.051Z,100747.50
2023-03-16T09:04:56.329Z,100744.56
2023-03-16T09:07:23.136Z,100728.41
2023-03-16T09:09:50.908Z,100737.16
2023-03-16T09:12:17.528Z,100736.22
2023-03-16T09:14:44.129Z,100750.44
2023-03-16T09:17:11.822Z,100748.50
2023-03-16T09:19:57.706Z,100740.94
2023-03-16T09:22:25.712Z,100746.06
2023-03-16T09:24:52.365Z,100745.94
2023-03-16T09:27:20.735Z,100761.09
2023-03-16T09:29:48.817Z,100755.50
2023-03-16T09:32:15.561Z,100758.50
2023-03-16T09:34:42.257Z,100753.97
2023-03-16T09:37:09.722Z,100747.50
2023-03-16T09:39:37.115Z,100759.50
2023-03-16T09:42:25.232Z,100759.78
2023-03-16T09:45:10.315Z,100749.28
2023-03-16T09:47:38.663Z,100753.25
2023-03-16T09:50:16.516Z,100762.37
2023-03-16T09:53:09.441Z,100763.91
2023-03-16T09:55:38.883Z,100763.06
2023-03-16T09:58:13.710Z,100766.00
2023-03-16T10:00:51.410Z,100758.84
2023-03-16T10:03:38.338Z,100771.06
2023-03-16T10:06:09.618Z,100771.50
2023-03-16T10:08:43.646Z,100777.78
2023-03-16T10:11:27.940Z,100776.66
2023-03-16T10:14:17.789Z,100777.41
2023-03-16T10:16:51.391Z,100776.19
2023-03-16T10:19:23.572Z,100772.63
2023-03-16T10:21:54.396Z,100775.03
2023-03-16T10:24:46.993Z,100778.06
2023-03-16T10:27:23.358Z,100777.03
2023-03-16T10:29:50.024Z,100778.50
2023-03-16T10:32:19.623Z,100789.84
2023-03-16T10:34:56.618Z,100784.69
2023-03-16T10:37:24.260Z,100778.69
2023-03-16T10:39:50.866Z,100785.94
2023-03-16T10:42:20.266Z,100780.66
2023-03-16T10:44:47.474Z,100782.09
2023-03-16T10:47:25.199Z,100778.12
2023-03-16T10:49:51.885Z,100776.19
2023-03-16T10:52:42.680Z,100774.12
2023-03-16T10:55:24.198Z,100781.88
2023-03-16T10:57:56.285Z,100783.38
2023-03-16T11:00:29.032Z,100772.94
2023-03-16T11:02:58.203Z,100782.31
2023-03-16T11:05:34.181Z,100776.66
2023-03-16T11:08:23.780Z,100773.28
2023-03-16T11:11:14.279Z,100778.94
2023-03-16T11:13:45.194Z,100777.75
2023-03-16T11:16:38.266Z,100768.06
2023-03-16T11:19:26.146Z,100770.38
2023-03-16T11:22:08.369Z,100760.69
2023-03-16T11:24:52.853Z,100766.50
2023-03-16T11:27:30.269Z,100763.75
2023-03-16T11:30:05.433Z,100763.66
2023-03-16T11:32:38.357Z,100770.81
2023-03-16T11:35:38.540Z,100756.84
2023-03-16T11:38:21.721Z,100762.00
2023-03-16T11:40:53.997Z,100750.81
2023-03-16T11:43:20.875Z,100760.22
2023-03-16T11:46:14.039Z,100759.53
2023-03-16T11:48:48.106Z,100752.78
2023-03-16T11:51:33.555Z,100750.06
2023-03-16T11:54:25.103Z,100749.09
2023-03-16T11:56:59.933Z,100750.59
2023-03-16T11:59:29.261Z,100755.13
2023-03-16T12:02:01.826Z,100757.66
2023-03-16T12:04:45.216Z,100752.44
2023-03-16T12:07:21.860Z,100757.38
2023-03-16T12:10:23.689Z,100754.72
2023-03-16T12:13:22.991Z,100741.84
2023-03-16T12:15:54.699Z,100724.94
2023-03-16T12:18:34.691Z,100740.84
2023-03-16T12:21:15.122Z,100741.78
2023-03-16T12:23:55.380Z,100736.44
2023-03-16T12:26:26.595Z,100739.91
2023-03-16T12:28:55.300Z,100739.13
2023-03-16T12:31:50.241Z,100739.84
2023-03-16T12:34:28.176Z,100740.00
2023-03-16T12:37:14.258Z,100732.56
2023-03-16T12:39:40.836Z,100731.84
2023-03-16T12:42:36.540Z,100735.22
2023-03-16T12:45:10.773Z,100726.72
2023-03-16T12:47:38.045Z,100734.16
2023-03-16T12:50:11.422Z,100724.31
2023-03-16T12:52:49.336Z,100729.00
2023-03-16T12:55:27.888Z,100723.03
2023-03-16T12:58:06.443Z,100723.16
2023-03-16T13:00:35.968Z,100733.91
2023-03-16T13:03:05.608Z,100733.50
2023-03-16T13:05:35.337Z,100733.28
2023-03-16T13:08:11.245Z,100733.66
2023-03-16T13:10:38.876Z,100742.13
2023-03-16T13:13:11.469Z,100740.34
2023-03-16T13:15:40.306Z,100738.44
2023-03-16T13:18:09.977Z,100734.16
2023-03-16T13:20:48.613Z,100732.28
2023-03-16T13:23:24.642Z,100731.09
2023-03-16T13:26:14.511Z,100730.09
2023-03-16T13:28:43.218Z,100720.81
2023-03-16T13:31:33.064Z,100723.72
2023-03-16T13:34:00.666Z,100733.91
2023-03-16T13:36:29.859Z,100722.91
2023-03-16T13:39:12.079Z,100724.56
2023-03-16T13:41:38.676Z,100720.81
2023-03-16T13:44:05.326Z,100720.25
2023-03-16T13:46:31.951Z,100716.34
2023-03-16T13:49:01.642Z,100711.78
2023-03-16T13:51:31.090Z,100713.91
2023-03-16T13:53:57.880Z,100715.78
2023-03-16T13:56:28.900Z,100727.41
2023-03-16T13:58:58.615Z,100722.56
2023-03-16T14:01:28.587Z,100719.84
2023-03-16T14:03:59.587Z,100721.72
2023-03-16T14:06:28.910Z,100716.34
2023-03-16T14:09:02.842Z,100730.56
2023-03-16T14:11:29.910Z,100723.28
2023-03-16T14:13:58.931Z,100711.78
2023-03-16T14:16:32.046Z,100715.03
2023-03-16T14:19:03.273Z,100710.84
2023-03-16T14:21:34.169Z,100715.31
2023-03-16T14:24:04.694Z,100724.22
2023-03-16T14:26:46.094Z,100722.97
2023-03-16T14:29:18.714Z,100732.09
2023-03-16T14:31:46.054Z,100736.16
2023-03-16T14:34:41.864Z,100730.72
2023-03-16T14:37:14.816Z,100733.75
2023-03-16T14:39:42.188Z,100743.69
2023-03-16T14:42:21.479Z,100738.69
2023-03-16T14:44:49.685Z,100733.94
2023-03-16T14:47:24.212Z,100733.84
2023-03-16T14:49:51.390Z,100741.34
2023-03-16T14:52:31.556Z,100748.25
2023-03-16T14:54:59.226Z,100739.88
2023-03-16T14:57:26.946Z,100747.28
2023-03-16T14:59:54.574Z,100751.84
2023-03-16T15:02:28.898Z,100750.62
2023-03-16T15:04:56.784Z,100745.00
2023-03-16T15:07:27.218Z,100753.03
2023-03-16T15:09:55.194Z,100763.25
2023-03-16T15:12:25.036Z,100752.81
2023-03-16T15:15:10.801Z,100749.78
2023-03-16T15:17:39.751Z,100748.19
2023-03-16T15:20:07.227Z,100748.50
2023-03-16T15:22:39.130Z,100748.69
2023-03-16T15:25:08.821Z,100755.91
2023-03-16T15:27:36.669Z,100759.34
2023-03-16T15:30:03.542Z,100759.72
2023-03-16T15:32:30.338Z,100752.66
2023-03-16T15:34:57.704Z,100766.66
2023-03-16T15:37:27.679Z,100764.53
2023-03-16T15:39:54.492Z,100768.75
2023-03-16T15:42:21.276Z,100778.59
2023-03-16T15:44:48.609Z,100774.28
2023-03-16T15:47:16.597Z,100781.66
2023-03-16T15:49:47.734Z,100784.97
2023-03-16T15:52:37.496Z,100792.31
2023-03-16T15:55:07.880Z,100793.03
2023-03-16T15:57:36.702Z,100796.06
2023-03-16T16:00:04.458Z,100795.34
2023-03-16T16:02:32.268Z,100796.31
2023-03-16T16:04:59.349Z,100803.72
2023-03-16T16:07:27.249Z,100795.16
2023-03-16T16:09:54.066Z,100805.19
2023-03-16T16:12:26.863Z,100815.97
2023-03-16T16:14:56.206Z,100812.34
2023-03-16T16:17:36.476Z,100810.47
2023-03-16T16:20:25.580Z,100822.25
2023-03-16T16:22:52.221Z,100817.41
2023-03-16T16:25:22.195Z,100823.09
2023-03-16T16:27:50.278Z,100827.41
2023-03-16T16:30:26.615Z,100828.38
2023-03-16T16:32:53.993Z,100825.94
2023-03-16T16:35:27.495Z,100830.19
2023-03-16T16:37:54.382Z,100837.22
2023-03-16T16:40:24.012Z,100846.75
2023-03-16T16:42:53.526Z,100845.94
2023-03-16T16:45:27.881Z,100856.34
2023-03-16T16:47:55.756Z,100855.53
2023-03-16T16:50:26.578Z,100853.03
2023-03-16T16:52:54.922Z,100853.69
2023-03-16T16:55:22.553Z,100869.12
2023-03-16T16:57:52.715Z,100866.00
2023-03-16T17:00:25.764Z,100869.34
2023-03-16T17:02:55.820Z,100876.91
2023-03-16T17:05:25.698Z,100869.22
2023-03-16T17:07:52.955Z,100876.44
2023-03-16T17:10:25.159Z,100883.91
2023-03-16T17:12:56.908Z,100887.41
2023-03-16T17:15:30.367Z,100884.84
2023-03-16T17:18:17.414Z,100897.31
2023-03-16T17:20:44.911Z,100899.56
2023-03-16T17:23:37.124Z,100893.03
2023-03-16T17:26:13.883Z,100895.41
2023-03-16T17:29:06.211Z,100899.91
2023-03-16T17:31:39.041Z,100904.84
2023-03-16T17:34:23.803Z,100901.03
2023-03-16T17:36:51.323Z,100903.19
2023-03-16T17:39:22.179Z,100906.72
2023-03-16T17:41:54.638Z,100906.62
2023-03-16T17:44:21.612Z,100907.19
2023-03-16T17:46:48.902Z,100913.97
2023-03-16T17:49:18.322Z,100914.66
2023-03-16T17:51:45.191Z,100915.88
2023-03-16T17:54:11.999Z,100920.97
2023-03-16T17:56:40.365Z,100924.84
2023-03-16T17:59:15.624Z,100928.75
2023-03-16T18:01:47.093Z,100931.00
2023-03-16T18:04:24.443Z,100932.28
2023-03-16T18:06:51.530Z,100937.75
2023-03-16T18:09:20.517Z,100945.22
2023-03-16T18:11:50.064Z,100948.47
2023-03-16T18:14:36.774Z,100946.56
2023-03-16T18:17:15.768Z,100954.12
2023-03-16T18:19:43.561Z,100948.84
2023-03-16T18:22:23.034Z,100955.31
2023-03-16T18:24:51.184Z,100966.25
2023-03-16T18:27:18.022Z,100968.75
2023-03-16T18:29:46.905Z,100968.91
2023-03-16T18:32:23.017Z,100970.91
2023-03-16T18:34:51.701Z,100975.34
2023-03-16T18:37:28.013Z,100976.25
2023-03-16T18:39:55.265Z,100980.94
2023-03-16T18:42:29.144Z,100979.03
2023-03-16T18:44:55.768Z,100984.91
2023-03-16T18:47:24.317Z,100991.44
2023-03-16T18:49:54.351Z,100993.06
2023-03-16T18:52:22.112Z,100990.47
2023-03-16T18:54:49.272Z,100996.19
2023-03-16T18:57:21.509Z,100996.94
2023-03-16T18:59:48.809Z,100996.00
2023-03-16T19:02:31.315Z,101009.25
2023-03-16T19:05:00.519Z,101015.75
2023-03-16T19:07:36.798Z,101016.09
2023-03-16T19:10:14.530Z,101026.28
2023-03-16T19:12:43.938Z,101035.34
2023-03-16T19:15:19.084Z,101033.37
2023-03-16T19:17:46.826Z,101042.69
2023-03-16T19:20:18.812Z,101043.22
2023-03-16T19:22:48.097Z,101050.06
2023-03-16T19:25:29.730Z,101053.22
2023-03-16T19:27:57.164Z,101045.66
2023-03-16T19:30:29.071Z,101057.87
2023-03-16T19:32:58.673Z,101058.47
2023-03-16T19:35:50.322Z,101070.00
2023-03-16T19:38:18.129Z,101081.97
2023-03-16T19:40:48.413Z,101065.69
2023-03-16T19:43:18.398Z,101066.28
2023-03-16T19:45:48.748Z,101084.31
2023-03-16T19:48:21.323Z,101072.56
2023-03-16T19:50:49.955Z,101085.41
2023-03-16T19:53:19.196Z,101081.59
2023-03-16T19:55:51.127Z,101086.03
2023-03-16T19:58:26.914Z,101093.12
2023-03-16T20:00:53.894Z,101091.72
2023-03-16T20:03:20.966Z,101095.56
2023-03-16T20:05:50.370Z,101093.28
2023-03-16T20:08:24.127Z,101094.06
2023-03-16T20:10:51.902Z,101096.53
2023-03-16T20:13:18.990Z,101102.09
2023-03-16T20:15:46.622Z,101099.88
2023-03-16T20:18:19.007Z,101094.00
2023-03-16T20:20:46.794Z,101097.16
2023-03-16T20:23:25.725Z,101108.25
2023-03-16T20:25:54.771Z,101102.50
2023-03-16T20:28:25.757Z,101094.41
2023-03-16T20:30:52.866Z,101105.22
2023-03-16T20:33:25.469Z,101106.94
2023-03-16T20:35:56.194Z,101105.00
2023-03-16T20:38:23.712Z,101114.91
2023-03-16T20:40:53.199Z,101111.53
2023-03-16T20:43:32.064Z,101117.91
2023-03-16T20:46:02.316Z,101126.16
2023-03-16T20:48:29.383Z,101125.75
2023-03-16T20:50:57.321Z,101124.56
2023-03-16T20:53:27.690Z,101120.91
2023-03-16T20:55:56.388Z,101123.94
2023-03-16T20:58:26.283Z,101130.38
2023-03-16T21:00:57.645Z,101126.25
2023-03-16T21:03:29.944Z,101132.94
2023-03-16T21:05:59.793Z,101124.94
2023-03-16T21:08:26.973Z,101134.06
2023-03-16T21:10:55.110Z,101133.19
2023-03-16T21:13:28.472Z,101135.13
2023-03-16T21:15:58.065Z,101138.41
2023-03-16T21:18:24.638Z,101133.22
2023-03-16T21:20:52.990Z,101145.16
2023-03-16T21:23:22.373Z,101145.34
2023-03-16T21:25:55.916Z,101140.66
2023-03-16T21:28:26.122Z,101149.94
2023-03-16T21:30:54.958Z,101151.69
2023-03-16T21:33:33.795Z,101148.34
2023-03-16T21:36:02.408Z,101153.66
2023-03-16T21:38:31.097Z,101155.31
2023-03-16T21:40:58.515Z,101152.25
2023-03-16T21:43:26.292Z,101150.28
2023-03-16T21:45:55.133Z,101161.50
2023-03-16T21:48:24.837Z,101155.69
2023-03-16T21:50:53.859Z,101155.63
2023-03-16T21:53:25.770Z,101159.22
2023-03-16T21:55:54.598Z,101157.03
2023-03-16T21:58:22.203Z,101170.78
2023-03-16T22:00:50.624Z,101159.22
2023-03-16T22:03:29.570Z,101162.53
2023-03-16T22:06:00.306Z,101163.72
2023-03-16T22:08:33.068Z,101158.47
2023-03-16T22:11:00.779Z,101161.69
2023-03-16T22:13:28.141Z,101159.44
2023-03-16T22:16:01.222Z,101161.97
2023-03-16T22:18:30.867Z,101154.44
2023-03-16T22:20:58.969Z,101159.09
2023-03-16T22:23:34.839Z,101159.06
2023-03-16T22:26:03.249Z,101159.34
2023-03-16T22:28:31.645Z,101163.75
2023-03-16T22:31:00.828Z,101166.84
2023-03-16T22:33:30.897Z,101162.16
2023-03-16T22:36:12.049Z,101164.00
2023-03-16T22:38:40.818Z,101162.34
2023-03-16T22:41:08.200Z,101160.88
2023-03-16T22:43:37.078Z,101158.59
2023-03-16T22:46:04.204Z,101167.34
2023-03-16T22:48:32.181Z,101159.63
2023-03-16T22:51:03.851Z,101166.56
2023-03-16T22:53:39.946Z,101167.06
2023-03-16T22:56:10.237Z,101167.62
2023-03-16T22:58:41.261Z,101169.78
2023-03-16T23:01:19.646Z,101169.34
2023-03-16T23:03:48.456Z,101170.00
2023-03-16T23:06:21.580Z,101178.72
2023-03-16T23:08:49.180Z,101179.97
2023-03-16T23:11:22.356Z,101177.62
2023-03-16T23:13:49.796Z,101176.53
2023-03-16T23:16:36.681Z,101169.37
2023-03-16T23:19:24.389Z,101170.38
2023-03-16T23:21:53.100Z,101189.06
2023-03-16T23:24:19.696Z,101188.81
2023-03-16T23:26:46.793Z,101182.63
2023-03-16T23:29:13.818Z,101190.38
2023-03-16T23:31:40.970Z,101188.00
2023-03-16T23:34:20.808Z,101183.72
2023-03-16T23:36:47.554Z,101192.87
2023-03-16T23:39:14.399Z,101194.88
2023-03-16T23:41:44.135Z,101196.03
2023-03-16T23:44:23.409Z,101194.53
2023-03-16T23:46:51.515Z,101198.81
2023-03-16T23:49:27.086Z,101193.41
2023-03-16T23:51:56.759Z,101201.56
2023-03-16T23:54:29.736Z,101201.09
2023-03-16T23:56:57.136Z,101198.81
2023-03-16T23:59:23.830Z,101193.03
